sensor_id;sensor_type;location;lat;lon;timestamp;pressure;altitude;pressure_sealevel;temperature;humidity
50732;BME280;36700;50.488;2.544;2023-08-31T00:00:42;100599.94;;;20.27;53.18
50732;BME280;36700;50.488;2.544;2023-08-31T00:03:08;100603.50;;;20.28;53.37
50732;BME280;36700;50.488;2.544;2023-08-31T00:05:40;100606.50;;;20.26;53.48
50732;BME280;36700;50.488;2.544;2023-08-31T00:08:06;100599.41;;;20.25;53.73
50732;BME280;36700;50.488;2.544;2023-08-31T00:10:33;100603.75;;;20.26;53.26
50732;BME280;36700;50.488;2.544;2023-08-31T00:13:01;100609.47;;;20.25;53.40
50732;BME280;36700;50.488;2.544;2023-08-31T00:15:27;100607.03;;;20.23;53.32
50732;BME280;36700;50.488;2.544;2023-08-31T00:17:54;100612.50;;;20.23;53.28
50732;BME280;36700;50.488;2.544;2023-08-31T00:20:20;100599.91;;;20.22;53.76
50732;BME280;36700;50.488;2.544;2023-08-31T00:22:47;100594.47;;;20.22;53.33
50732;BME280;36700;50.488;2.544;2023-08-31T00:25:13;100601.84;;;20.22;53.61
50732;BME280;36700;50.488;2.544;2023-08-31T00:27:40;100596.38;;;20.22;53.77
50732;BME280;36700;50.488;2.544;2023-08-31T00:30:07;100595.56;;;20.21;53.78
50732;BME280;36700;50.488;2.544;2023-08-31T00:32:34;100586.81;;;20.19;54.02
50732;BME280;36700;50.488;2.544;2023-08-31T00:35:00;100587.91;;;20.18;53.91
50732;BME280;36700;50.488;2.544;2023-08-31T00:37:26;100584.34;;;20.17;53.42
50732;BME280;36700;50.488;2.544;2023-08-31T00:39:52;100588.72;;;20.18;53.58
50732;BME280;36700;50.488;2.544;2023-08-31T00:42:18;100586.81;;;20.19;53.84
50732;BME280;36700;50.488;2.544;2023-08-31T00:44:44;100587.09;;;20.17;53.99
50732;BME280;36700;50.488;2.544;2023-08-31T00:47:13;100589.81;;;20.17;53.62
50732;BME280;36700;50.488;2.544;2023-08-31T00:49:40;100580.00;;;20.16;53.54
50732;BME280;36700;50.488;2.544;2023-08-31T00:52:07;100580.78;;;20.17;54.00
50732;BME280;36700;50.488;2.544;2023-08-31T00:54:34;100578.34;;;20.15;53.75
50732;BME280;36700;50.488;2.544;2023-08-31T00:57:00;100576.44;;;20.16;53.95
50732;BME280;36700;50.488;2.544;2023-08-31T00:59:26;100580.78;;;20.17;53.63
50732;BME280;36700;50.488;2.544;2023-08-31T01:02:09;100578.34;;;20.15;53.99
50732;BME280;36700;50.488;2.544;2023-08-31T01:04:48;100579.44;;;20.14;53.84
50732;BME280;36700;50.488;2.544;2023-08-31T01:07:44;100579.44;;;20.14;54.12
50732;BME280;36700;50.488;2.544;2023-08-31T01:10:32;100576.97;;;20.13;53.93
50732;BME280;36700;50.488;2.544;2023-08-31T01:13:17;100580.50;;;20.13;53.79
50732;BME280;36700;50.488;2.544;2023-08-31T01:15:46;100578.88;;;20.12;54.01
50732;BME280;36700;50.488;2.544;2023-08-31T01:18:17;100581.59;;;20.12;53.73
50732;BME280;36700;50.488;2.544;2023-08-31T01:20:52;100580.81;;;20.12;53.82
50732;BME280;36700;50.488;2.544;2023-08-31T01:23:25;100587.91;;;20.13;53.75
50732;BME280;36700;50.488;2.544;2023-08-31T01:25:54;100573.69;;;20.11;54.27
50732;BME280;36700;50.488;2.544;2023-08-31T01:28:20;100585.69;;;20.10;54.11
50732;BME280;36700;50.488;2.544;2023-08-31T01:30:46;100582.97;;;20.10;53.79
50732;BME280;36700;50.488;2.544;2023-08-31T01:33:13;100584.88;;;20.09;53.83
50732;BME280;36700;50.488;2.544;2023-08-31T01:35:43;100592.25;;;20.09;54.29
50732;BME280;36700;50.488;2.544;2023-08-31T01:38:11;100583.25;;;20.08;54.08
50732;BME280;36700;50.488;2.544;2023-08-31T01:40:46;100585.97;;;20.08;54.03
50732;BME280;36700;50.488;2.544;2023-08-31T01:43:17;100580.53;;;20.08;54.43
50732;BME280;36700;50.488;2.544;2023-08-31T01:45:43;100584.31;;;20.07;54.41
50732;BME280;36700;50.488;2.544;2023-08-31T01:48:13;100585.41;;;20.06;54.21
50732;BME280;36700;50.488;2.544;2023-08-31T01:50:39;100586.25;;;20.07;54.29
50732;BME280;36700;50.488;2.544;2023-08-31T01:53:05;100578.56;;;20.03;54.46
50732;BME280;36700;50.488;2.544;2023-08-31T01:55:32;100578.84;;;20.07;54.11
50732;BME280;36700;50.488;2.544;2023-08-31T01:57:58;100583.78;;;20.05;54.14
50732;BME280;36700;50.488;2.544;2023-08-31T02:00:25;100586.75;;;20.03;54.17
50732;BME280;36700;50.488;2.544;2023-08-31T02:02:51;100590.31;;;20.04;54.54
50732;BME280;36700;50.488;2.544;2023-08-31T02:05:17;100594.16;;;20.03;54.51
50732;BME280;36700;50.488;2.544;2023-08-31T02:07:43;100592.22;;;20.03;54.06
50732;BME280;36700;50.488;2.544;2023-08-31T02:10:09;100594.94;;;20.03;54.60
50732;BME280;36700;50.488;2.544;2023-08-31T02:12:35;100591.69;;;20.01;54.53
50732;BME280;36700;50.488;2.544;2023-08-31T02:15:04;100592.50;;;20.02;54.60
50732;BME280;36700;50.488;2.544;2023-08-31T02:17:31;100594.16;;;20.03;54.17
50732;BME280;36700;50.488;2.544;2023-08-31T02:19:57;100591.69;;;20.01;54.13
50732;BME280;36700;50.488;2.544;2023-08-31T02:22:23;100595.25;;;20.02;54.29
50732;BME280;36700;50.488;2.544;2023-08-31T02:24:49;100591.69;;;20.01;54.69
50732;BME280;36700;50.488;2.544;2023-08-31T02:27:15;100596.31;;;20.01;54.29
50732;BME280;36700;50.488;2.544;2023-08-31T02:29:41;100594.66;;;20.00;54.63
50732;BME280;36700;50.488;2.544;2023-08-31T02:32:07;100596.59;;;19.99;54.67
50732;BME280;36700;50.488;2.544;2023-08-31T02:34:33;100600.97;;;20.00;54.89
50732;BME280;36700;50.488;2.544;2023-08-31T02:36:59;100593.88;;;19.99;54.67
50732;BME280;36700;50.488;2.544;2023-08-31T02:39:25;100589.47;;;19.98;54.21
50732;BME280;36700;50.488;2.544;2023-08-31T02:41:51;100591.94;;;20.00;54.61
50732;BME280;36700;50.488;2.544;2023-08-31T02:44:17;100592.19;;;19.98;54.35
50732;BME280;36700;50.488;2.544;2023-08-31T02:46:43;100590.56;;;19.97;54.44
50732;BME280;36700;50.488;2.544;2023-08-31T02:49:09;100590.56;;;19.97;54.91
50732;BME280;36700;50.488;2.544;2023-08-31T02:51:35;100591.41;;;19.98;54.46
50732;BME280;36700;50.488;2.544;2023-08-31T02:54:00;100589.75;;;19.97;54.74
50732;BME280;36700;50.488;2.544;2023-08-31T02:56:26;100587.03;;;19.97;54.80
50732;BME280;36700;50.488;2.544;2023-08-31T02:58:52;100588.13;;;19.96;54.82
50732;BME280;36700;50.488;2.544;2023-08-31T03:01:18;100585.41;;;19.96;54.57
50732;BME280;36700;50.488;2.544;2023-08-31T03:03:44;100589.16;;;19.95;55.00
50732;BME280;36700;50.488;2.544;2023-08-31T03:06:11;100591.09;;;19.94;54.60
50732;BME280;36700;50.488;2.544;2023-08-31T03:08:38;100589.16;;;19.95;54.85
50732;BME280;36700;50.488;2.544;2023-08-31T03:11:04;100592.97;;;19.94;54.58
50732;BME280;36700;50.488;2.544;2023-08-31T03:13:31;100593.81;;;19.94;54.93
50732;BME280;36700;50.488;2.544;2023-08-31T03:15:58;100598.44;;;19.94;55.07
50732;BME280;36700;50.488;2.544;2023-08-31T03:18:24;100583.16;;;19.92;54.81
50732;BME280;36700;50.488;2.544;2023-08-31T03:20:49;100588.63;;;19.92;54.77
50732;BME280;36700;50.488;2.544;2023-08-31T03:23:16;100597.06;;;19.91;54.85
50732;BME280;36700;50.488;2.544;2023-08-31T03:25:42;100589.97;;;19.90;54.75
50732;BME280;36700;50.488;2.544;2023-08-31T03:28:08;100595.69;;;19.88;54.88
50732;BME280;36700;50.488;2.544;2023-08-31T03:30:34;100601.72;;;19.90;54.77
50732;BME280;36700;50.488;2.544;2023-08-31T03:33:00;100606.34;;;19.90;54.97
50732;BME280;36700;50.488;2.544;2023-08-31T03:35:26;100598.41;;;19.88;54.73
50732;BME280;36700;50.488;2.544;2023-08-31T03:37:55;100592.97;;;19.88;54.60
50732;BME280;36700;50.488;2.544;2023-08-31T03:40:21;100598.41;;;19.88;55.04
50732;BME280;36700;50.488;2.544;2023-08-31T03:42:49;100601.16;;;19.88;54.89
50732;BME280;36700;50.488;2.544;2023-08-31T03:45:15;100596.78;;;19.87;55.04
50732;BME280;36700;50.488;2.544;2023-08-31T03:47:41;100599.50;;;19.87;54.74
50732;BME280;36700;50.488;2.544;2023-08-31T03:50:08;100602.50;;;19.86;55.21
50732;BME280;36700;50.488;2.544;2023-08-31T03:52:36;100591.59;;;19.86;55.04
50732;BME280;36700;50.488;2.544;2023-08-31T03:55:02;100600.59;;;19.86;55.10
50732;BME280;36700;50.488;2.544;2023-08-31T03:57:28;100593.75;;;19.84;54.83
50732;BME280;36700;50.488;2.544;2023-08-31T03:59:54;100595.41;;;19.85;55.00
50732;BME280;36700;50.488;2.544;2023-08-31T04:02:20;100595.41;;;19.85;54.97
50732;BME280;36700;50.488;2.544;2023-08-31T04:04:46;100596.22;;;19.85;55.12
50732;BME280;36700;50.488;2.544;2023-08-31T04:07:12;100594.59;;;19.84;55.11
50732;BME280;36700;50.488;2.544;2023-08-31T04:09:38;100593.75;;;19.84;54.81
50732;BME280;36700;50.488;2.544;2023-08-31T04:12:04;100592.94;;;19.83;54.81
50732;BME280;36700;50.488;2.544;2023-08-31T04:14:30;100601.13;;;19.83;54.82
50732;BME280;36700;50.488;2.544;2023-08-31T04:16:56;100601.41;;;19.82;54.95
50732;BME280;36700;50.488;2.544;2023-08-31T04:19:22;100599.47;;;19.82;55.02
50732;BME280;36700;50.488;2.544;2023-08-31T04:21:48;100598.94;;;19.80;55.26
50732;BME280;36700;50.488;2.544;2023-08-31T04:24:14;100597.84;;;19.81;54.98
50732;BME280;36700;50.488;2.544;2023-08-31T04:26:40;100601.66;;;19.80;54.78
50732;BME280;36700;50.488;2.544;2023-08-31T04:29:06;100596.47;;;19.78;55.35
50732;BME280;36700;50.488;2.544;2023-08-31T04:31:32;100600.03;;;19.79;55.19
50732;BME280;36700;50.488;2.544;2023-08-31T04:33:58;100598.41;;;19.78;54.97
50732;BME280;36700;50.488;2.544;2023-08-31T04:36:24;100608.22;;;19.79;54.98
50732;BME280;36700;50.488;2.544;2023-08-31T04:38:53;100609.31;;;19.78;55.42
50732;BME280;36700;50.488;2.544;2023-08-31T04:41:19;100609.56;;;19.76;55.01
50732;BME280;36700;50.488;2.544;2023-08-31T04:43:45;100609.81;;;19.75;54.87
50732;BME280;36700;50.488;2.544;2023-08-31T04:46:14;100616.66;;;19.77;55.36
50732;BME280;36700;50.488;2.544;2023-08-31T04:48:40;100619.66;;;19.76;55.16
50732;BME280;36700;50.488;2.544;2023-08-31T04:51:06;100623.22;;;19.76;55.58
50732;BME280;36700;50.488;2.544;2023-08-31T04:53:32;100621.81;;;19.74;55.04
50732;BME280;36700;50.488;2.544;2023-08-31T04:55:58;100626.19;;;19.75;54.97
50732;BME280;36700;50.488;2.544;2023-08-31T04:58:24;100626.19;;;19.75;55.06
50732;BME280;36700;50.488;2.544;2023-08-31T05:00:53;100636.31;;;19.74;55.30
50732;BME280;36700;50.488;2.544;2023-08-31T05:03:19;100637.38;;;19.73;55.01
50732;BME280;36700;50.488;2.544;2023-08-31T05:05:45;100638.19;;;19.74;55.41
50732;BME280;36700;50.488;2.544;2023-08-31T05:08:11;100642.81;;;19.73;55.15
50732;BME280;36700;50.488;2.544;2023-08-31T05:10:37;100648.84;;;19.75;55.54
50732;BME280;36700;50.488;2.544;2023-08-31T05:13:03;100653.47;;;19.75;55.04
50732;BME280;36700;50.488;2.544;2023-08-31T05:15:30;100649.94;;;19.74;55.43
50732;BME280;36700;50.488;2.544;2023-08-31T05:17:56;100650.19;;;19.73;55.30
50732;BME280;36700;50.488;2.544;2023-08-31T05:20:22;100649.38;;;19.72;55.50
50732;BME280;36700;50.488;2.544;2023-08-31T05:22:50;100650.19;;;19.73;55.17
50732;BME280;36700;50.488;2.544;2023-08-31T05:25:17;100646.63;;;19.72;55.21
50732;BME280;36700;50.488;2.544;2023-08-31T05:27:43;100654.81;;;19.72;55.46
50732;BME280;36700;50.488;2.544;2023-08-31T05:30:09;100656.75;;;19.72;55.31
50732;BME280;36700;50.488;2.544;2023-08-31T05:32:35;100654.00;;;19.72;55.42
50732;BME280;36700;50.488;2.544;2023-08-31T05:35:01;100657.81;;;19.71;55.19
50732;BME280;36700;50.488;2.544;2023-08-31T05:37:32;100657.53;;;19.72;55.15
50732;BME280;36700;50.488;2.544;2023-08-31T05:39:59;100654.00;;;19.72;55.46
50732;BME280;36700;50.488;2.544;2023-08-31T05:42:25;100649.63;;;19.71;55.49
50732;BME280;36700;50.488;2.544;2023-08-31T05:44:50;100660.53;;;19.71;55.61
50732;BME280;36700;50.488;2.544;2023-08-31T05:47:16;100666.00;;;19.71;55.55
50732;BME280;36700;50.488;2.544;2023-08-31T05:49:42;100661.38;;;19.71;55.47
50732;BME280;36700;50.488;2.544;2023-08-31T05:52:08;100659.72;;;19.70;55.37
50732;BME280;36700;50.488;2.544;2023-08-31T05:54:35;100660.53;;;19.71;55.72
50732;BME280;36700;50.488;2.544;2023-08-31T05:57:02;100666.00;;;19.71;55.52
50732;BME280;36700;50.488;2.544;2023-08-31T05:59:29;100666.00;;;19.71;55.58
50732;BME280;36700;50.488;2.544;2023-08-31T06:01:55;100680.22;;;19.73;55.39
50732;BME280;36700;50.488;2.544;2023-08-31T06:04:21;100682.09;;;19.72;55.62
50732;BME280;36700;50.488;2.544;2023-08-31T06:06:47;100681.28;;;19.72;55.62
50732;BME280;36700;50.488;2.544;2023-08-31T06:09:13;100682.09;;;19.72;55.37
50732;BME280;36700;50.488;2.544;2023-08-31T06:11:39;100681.84;;;19.74;55.32
50732;BME280;36700;50.488;2.544;2023-08-31T06:14:06;100688.41;;;19.73;55.19
50732;BME280;36700;50.488;2.544;2023-08-31T06:16:33;100691.94;;;19.73;55.48
50732;BME280;36700;50.488;2.544;2023-08-31T06:18:59;100703.41;;;19.75;55.10
50732;BME280;36700;50.488;2.544;2023-08-31T06:21:25;100699.59;;;19.76;55.43
50732;BME280;36700;50.488;2.544;2023-08-31T06:23:51;100697.69;;;19.77;55.47
50732;BME280;36700;50.488;2.544;2023-08-31T06:26:17;100708.59;;;19.77;55.20
50732;BME280;36700;50.488;2.544;2023-08-31T06:28:43;100702.59;;;19.75;55.01
50732;BME280;36700;50.488;2.544;2023-08-31T06:31:09;100706.94;;;19.76;55.30
50732;BME280;36700;50.488;2.544;2023-08-31T06:33:35;100704.22;;;19.76;55.51
50732;BME280;36700;50.488;2.544;2023-08-31T06:36:02;100685.06;;;19.66;55.03
50732;BME280;36700;50.488;2.544;2023-08-31T06:38:29;100709.16;;;19.79;55.25
50732;BME280;36700;50.488;2.544;2023-08-31T06:40:55;100705.06;;;19.76;55.03
50732;BME280;36700;50.488;2.544;2023-08-31T06:43:25;100697.97;;;19.75;54.76
50732;BME280;36700;50.488;2.544;2023-08-31T06:45:54;100692.22;;;19.72;55.38
50732;BME280;36700;50.488;2.544;2023-08-31T06:48:21;100688.59;;;19.66;55.29
50732;BME280;36700;50.488;2.544;2023-08-31T06:50:47;100702.59;;;19.75;55.41
50732;BME280;36700;50.488;2.544;2023-08-31T06:53:14;100698.72;;;19.71;55.51
50732;BME280;36700;50.488;2.544;2023-08-31T06:55:40;100709.41;;;19.77;55.24
50732;BME280;36700;50.488;2.544;2023-08-31T06:58:06;100708.13;;;19.85;55.00
50732;BME280;36700;50.488;2.544;2023-08-31T07:00:33;100711.94;;;19.84;55.33
50732;BME280;36700;50.488;2.544;2023-08-31T07:02:59;100713.91;;;19.94;54.91
50732;BME280;36700;50.488;2.544;2023-08-31T07:05:26;100710.59;;;19.87;54.99
50732;BME280;36700;50.488;2.544;2023-08-31T07:07:53;100711.69;;;19.91;54.69
50732;BME280;36700;50.488;2.544;2023-08-31T07:10:21;100706.31;;;20.76;53.55
50732;BME280;36700;50.488;2.544;2023-08-31T07:12:48;100702.69;;;23.51;46.65
50732;BME280;36700;50.488;2.544;2023-08-31T07:15:15;100710.13;;;23.45;45.87
50732;BME280;36700;50.488;2.544;2023-08-31T07:17:42;100710.53;;;23.28;46.42
50732;BME280;36700;50.488;2.544;2023-08-31T07:20:09;100704.13;;;24.84;43.43
50732;BME280;36700;50.488;2.544;2023-08-31T07:22:35;100717.38;;;25.49;41.63
50732;BME280;36700;50.488;2.544;2023-08-31T07:25:01;100705.31;;;25.92;40.19
50732;BME280;36700;50.488;2.544;2023-08-31T07:27:29;100714.78;;;23.74;44.46
50732;BME280;36700;50.488;2.544;2023-08-31T07:29:55;100721.63;;;23.12;45.78
50732;BME280;36700;50.488;2.544;2023-08-31T07:32:21;100717.84;;;21.92;48.68
50732;BME280;36700;50.488;2.544;2023-08-31T07:34:48;100731.25;;;21.31;50.45
50732;BME280;36700;50.488;2.544;2023-08-31T07:37:14;100736.47;;;21.22;51.11
50732;BME280;36700;50.488;2.544;2023-08-31T07:39:40;100728.81;;;21.71;50.22
50732;BME280;36700;50.488;2.544;2023-08-31T07:42:06;100722.50;;;21.50;50.24
50732;BME280;36700;50.488;2.544;2023-08-31T07:44:32;100722.78;;;21.28;50.87
50732;BME280;36700;50.488;2.544;2023-08-31T07:46:58;100721.16;;;21.01;51.58
50732;BME280;36700;50.488;2.544;2023-08-31T07:49:24;100726.03;;;20.93;51.51
50732;BME280;36700;50.488;2.544;2023-08-31T07:51:49;100731.78;;;20.87;52.09
50732;BME280;36700;50.488;2.544;2023-08-31T07:54:22;100733.66;;;20.76;51.96
50732;BME280;36700;50.488;2.544;2023-08-31T07:56:48;100736.63;;;20.69;52.58
50732;BME280;36700;50.488;2.544;2023-08-31T07:59:14;100733.88;;;20.69;52.40
50732;BME280;36700;50.488;2.544;2023-08-31T08:01:40;100735.19;;;20.56;52.66
50732;BME280;36700;50.488;2.544;2023-08-31T08:04:11;100741.72;;;20.44;53.33
50732;BME280;36700;50.488;2.544;2023-08-31T08:06:37;100740.59;;;20.35;53.51
50732;BME280;36700;50.488;2.544;2023-08-31T08:09:03;100742.19;;;20.26;53.99
50732;BME280;36700;50.488;2.544;2023-08-31T08:11:30;100747.94;;;20.24;53.93
50732;BME280;36700;50.488;2.544;2023-08-31T08:13:56;100737.78;;;20.20;54.05
50732;BME280;36700;50.488;2.544;2023-08-31T08:16:22;100754.44;;;20.18;54.25
50732;BME280;36700;50.488;2.544;2023-08-31T08:18:50;100750.06;;;20.17;54.59
50732;BME280;36700;50.488;2.544;2023-08-31T08:21:16;100742.13;;;20.10;54.67
50732;BME280;36700;50.488;2.544;2023-08-31T08:23:41;100750.56;;;20.09;54.61
50732;BME280;36700;50.488;2.544;2023-08-31T08:26:07;100743.72;;;20.06;54.91
50732;BME280;36700;50.488;2.544;2023-08-31T08:28:33;100747.53;;;20.05;55.04
50732;BME280;36700;50.488;2.544;2023-08-31T08:31:02;100740.41;;;19.99;54.92
50732;BME280;36700;50.488;2.544;2023-08-31T08:33:30;100746.28;;;19.80;55.21
50732;BME280;36700;50.488;2.544;2023-08-31T08:35:57;100741.03;;;19.68;55.79
50732;BME280;36700;50.488;2.544;2023-08-31T08:38:23;100746.59;;;19.51;55.84
50732;BME280;36700;50.488;2.544;2023-08-31T08:40:49;100750.97;;;19.52;55.84
50732;BME280;36700;50.488;2.544;2023-08-31T08:43:25;100751.22;;;19.45;56.03
50732;BME280;36700;50.488;2.544;2023-08-31T08:45:53;100749.53;;;19.39;55.61
50732;BME280;36700;50.488;2.544;2023-08-31T08:48:20;100751.91;;;19.30;56.19
50732;BME280;36700;50.488;2.544;2023-08-31T08:50:46;100766.09;;;19.32;56.38
50732;BME280;36700;50.488;2.544;2023-08-31T08:53:13;100764.13;;;19.28;56.96
50732;BME280;36700;50.488;2.544;2023-08-31T08:55:41;100761.56;;;19.16;57.20
50732;BME280;36700;50.488;2.544;2023-08-31T08:58:07;100754.56;;;19.25;57.04
50732;BME280;36700;50.488;2.544;2023-08-31T09:00:33;100754.09;;;19.33;56.67
50732;BME280;36700;50.488;2.544;2023-08-31T09:03:01;100754.09;;;19.33;56.44
50732;BME280;36700;50.488;2.544;2023-08-31T09:05:33;100755.28;;;19.43;57.09
50732;BME280;36700;50.488;2.544;2023-08-31T09:08:06;100750.41;;;19.50;57.21
50732;BME280;36700;50.488;2.544;2023-08-31T09:10:39;100753.44;;;19.54;56.63
50732;BME280;36700;50.488;2.544;2023-08-31T09:13:09;100748.81;;;19.54;57.01
50732;BME280;36700;50.488;2.544;2023-08-31T09:15:44;100746.50;;;19.41;57.14
50732;BME280;36700;50.488;2.544;2023-08-31T09:18:22;100745.16;;;19.43;56.43
50732;BME280;36700;50.488;2.544;2023-08-31T09:20:49;100744.06;;;19.39;56.26
50732;BME280;36700;50.488;2.544;2023-08-31T09:23:15;100744.81;;;19.34;56.78
50732;BME280;36700;50.488;2.544;2023-08-31T09:25:45;100742.94;;;19.35;56.70
50732;BME280;36700;50.488;2.544;2023-08-31T09:28:12;100736.38;;;19.36;56.96
50732;BME280;36700;50.488;2.544;2023-08-31T09:30:39;100742.63;;;19.31;57.33
50732;BME280;36700;50.488;2.544;2023-08-31T09:33:17;100744.03;;;19.34;57.23
50732;BME280;36700;50.488;2.544;2023-08-31T09:35:56;100744.06;;;19.39;56.33
50732;BME280;36700;50.488;2.544;2023-08-31T09:38:22;100745.66;;;19.35;56.17
50732;BME280;36700;50.488;2.544;2023-08-31T09:40:48;100750.56;;;19.33;56.24
50732;BME280;36700;50.488;2.544;2023-08-31T09:43:23;100748.34;;;19.30;56.21
50732;BME280;36700;50.488;2.544;2023-08-31T09:45:50;100747.00;;;19.32;56.41
50732;BME280;36700;50.488;2.544;2023-08-31T09:48:19;100746.50;;;19.35;56.36
50732;BME280;36700;50.488;2.544;2023-08-31T09:50:45;100744.53;;;19.31;56.22
50732;BME280;36700;50.488;2.544;2023-08-31T09:53:12;100739.06;;;19.31;55.92
50732;BME280;36700;50.488;2.544;2023-08-31T09:55:41;100748.91;;;19.32;55.87
50732;BME280;36700;50.488;2.544;2023-08-31T09:58:08;100751.91;;;19.30;56.35
50732;BME280;36700;50.488;2.544;2023-08-31T10:00:36;100748.09;;;19.31;55.52
50732;BME280;36700;50.488;2.544;2023-08-31T10:03:04;100751.94;;;19.35;55.68
50732;BME280;36700;50.488;2.544;2023-08-31T10:05:31;100748.44;;;19.40;55.63
50732;BME280;36700;50.488;2.544;2023-08-31T10:07:59;100759.34;;;19.40;55.53
50732;BME280;36700;50.488;2.544;2023-08-31T10:10:27;100749.25;;;19.41;55.96
50732;BME280;36700;50.488;2.544;2023-08-31T10:12:54;100742.16;;;19.40;55.23
50732;BME280;36700;50.488;2.544;2023-08-31T10:15:20;100752.78;;;19.41;55.41
50732;BME280;36700;50.488;2.544;2023-08-31T10:17:46;100746.84;;;19.44;55.83
50732;BME280;36700;50.488;2.544;2023-08-31T10:20:15;100750.38;;;19.45;55.42
50732;BME280;36700;50.488;2.544;2023-08-31T10:22:42;100750.13;;;19.46;55.68
50732;BME280;36700;50.488;2.544;2023-08-31T10:25:09;100749.28;;;19.46;55.07
50732;BME280;36700;50.488;2.544;2023-08-31T10:27:43;100750.41;;;19.50;54.89
50732;BME280;36700;50.488;2.544;2023-08-31T10:32:40;100753.41;;;19.48;54.33
50732;BME280;36700;50.488;2.544;2023-08-31T10:35:08;100745.78;;;19.50;53.90
50732;BME280;36700;50.488;2.544;2023-08-31T10:37:34;100744.97;;;19.50;54.02
50732;BME280;36700;50.488;2.544;2023-08-31T10:40:09;100748.47;;;19.45;54.69
50732;BME280;36700;50.488;2.544;2023-08-31T10:42:44;100744.13;;;19.44;54.98
50732;BME280;36700;50.488;2.544;2023-08-31T10:45:11;100753.94;;;19.45;54.93
50732;BME280;36700;50.488;2.544;2023-08-31T10:47:38;100747.91;;;19.43;54.75
50732;BME280;36700;50.488;2.544;2023-08-31T10:50:22;100744.63;;;19.41;54.83
50732;BME280;36700;50.488;2.544;2023-08-31T10:52:48;100743.53;;;19.42;55.09
50732;BME280;36700;50.488;2.544;2023-08-31T10:55:14;100740.81;;;19.42;55.13
50732;BME280;36700;50.488;2.544;2023-08-31T10:57:41;100747.66;;;19.45;54.77
50732;BME280;36700;50.488;2.544;2023-08-31T11:00:10;100746.00;;;19.44;54.34
50732;BME280;36700;50.488;2.544;2023-08-31T11:02:41;100739.22;;;19.46;53.89
50732;BME280;36700;50.488;2.544;2023-08-31T11:05:13;100739.75;;;19.48;53.80
50732;BME280;36700;50.488;2.544;2023-08-31T11:07:47;100737.88;;;19.49;54.46
50732;BME280;36700;50.488;2.544;2023-08-31T11:12:40;100737.06;;;19.54;54.28
50732;BME280;36700;50.488;2.544;2023-08-31T11:15:07;100737.06;;;19.54;54.69
50732;BME280;36700;50.488;2.544;2023-08-31T11:17:34;100734.13;;;19.60;54.27
50732;BME280;36700;50.488;2.544;2023-08-31T11:20:00;100734.19;;;19.71;54.47
50732;BME280;36700;50.488;2.544;2023-08-31T11:22:27;100734.53;;;19.74;54.25
50732;BME280;36700;50.488;2.544;2023-08-31T11:24:53;100731.25;;;19.77;54.31
50732;BME280;36700;50.488;2.544;2023-08-31T11:27:20;100729.34;;;19.78;54.62
50732;BME280;36700;50.488;2.544;2023-08-31T11:29:46;100730.44;;;19.82;55.06
50732;BME280;36700;50.488;2.544;2023-08-31T11:32:13;100731.78;;;19.80;54.80
50732;BME280;36700;50.488;2.544;2023-08-31T11:34:43;100727.44;;;19.78;54.92
50732;BME280;36700;50.488;2.544;2023-08-31T11:37:11;100728.31;;;19.84;55.20
50732;BME280;36700;50.488;2.544;2023-08-31T11:39:47;100728.84;;;19.86;54.72
50732;BME280;36700;50.488;2.544;2023-08-31T11:42:14;100731.63;;;19.91;54.94
50732;BME280;36700;50.488;2.544;2023-08-31T11:44:41;100728.34;;;19.95;54.57
50732;BME280;36700;50.488;2.544;2023-08-31T11:47:07;100732.47;;;19.97;54.90
50732;BME280;36700;50.488;2.544;2023-08-31T11:49:33;100724.03;;;19.99;54.80
50732;BME280;36700;50.488;2.544;2023-08-31T11:51:59;100725.69;;;20.00;54.96
50732;BME280;36700;50.488;2.544;2023-08-31T11:54:25;100725.41;;;20.01;54.95
50732;BME280;36700;50.488;2.544;2023-08-31T11:56:52;100725.16;;;20.03;55.01
50732;BME280;36700;50.488;2.544;2023-08-31T11:59:18;100719.41;;;20.04;54.87
50732;BME280;36700;50.488;2.544;2023-08-31T12:01:49;100720.25;;;20.05;54.58
50732;BME280;36700;50.488;2.544;2023-08-31T12:04:22;100718.06;;;20.07;54.53
50732;BME280;36700;50.488;2.544;2023-08-31T12:06:51;100724.09;;;20.09;54.65
50732;BME280;36700;50.488;2.544;2023-08-31T12:09:20;100722.19;;;20.10;54.72
50732;BME280;36700;50.488;2.544;2023-08-31T12:11:52;100728.22;;;20.12;54.92
50732;BME280;36700;50.488;2.544;2023-08-31T12:14:20;100718.94;;;20.13;54.94
50732;BME280;36700;50.488;2.544;2023-08-31T12:16:47;100721.66;;;20.13;54.58
50732;BME280;36700;50.488;2.544;2023-08-31T12:19:13;100729.31;;;20.16;54.50
50732;BME280;36700;50.488;2.544;2023-08-31T12:21:39;100729.31;;;20.16;54.86
50732;BME280;36700;50.488;2.544;2023-08-31T12:24:06;100731.50;;;20.14;54.67
50732;BME280;36700;50.488;2.544;2023-08-31T12:26:32;100729.00;;;20.12;55.17
50732;BME280;36700;50.488;2.544;2023-08-31T12:28:58;100726.31;;;20.17;55.20
50732;BME280;36700;50.488;2.544;2023-08-31T12:31:25;100732.59;;;20.18;54.85
50732;BME280;36700;50.488;2.544;2023-08-31T12:33:51;100720.56;;;20.14;55.43
50732;BME280;36700;50.488;2.544;2023-08-31T12:36:17;100723.31;;;20.19;55.24
50732;BME280;36700;50.488;2.544;2023-08-31T12:38:44;100726.06;;;20.19;55.81
50732;BME280;36700;50.488;2.544;2023-08-31T12:41:10;100720.59;;;20.19;55.90
50732;BME280;36700;50.488;2.544;2023-08-31T12:43:36;100711.56;;;20.18;55.74
50732;BME280;36700;50.488;2.544;2023-08-31T12:46:03;100721.69;;;20.18;55.96
50732;BME280;36700;50.488;2.544;2023-08-31T12:48:33;100727.69;;;20.20;56.10
50732;BME280;36700;50.488;2.544;2023-08-31T12:51:00;100707.44;;;20.06;56.35
50732;BME280;36700;50.488;2.544;2023-08-31T12:53:27;100727.41;;;20.16;56.59
50732;BME280;36700;50.488;2.544;2023-08-31T12:55:53;100725.78;;;20.15;56.38